createdAt,value
2018-06-20T00:00:17.492Z,4.80
2018-06-20T00:02:45.257Z,3.73
2018-06-20T00:05:12.989Z,5.13
2018-06-20T00:07:40.604Z,3.30
2018-06-20T00:10:08.257Z,3.23
2018-06-20T00:12:35.817Z,3.50
2018-06-20T00:15:03.459Z,4.53
2018-06-20T00:17:31.086Z,4.50
2018-06-20T00:19:58.696Z,4.17
2018-06-20T00:22:26.478Z,4.27
2018-06-20T00:24:54.349Z,5.37
2018-06-20T00:27:22.297Z,4.33
2018-06-20T00:29:49.922Z,4.83
2018-06-20T00:32:17.484Z,4.73
2018-06-20T00:34:45.118Z,5.10
2018-06-20T00:37:12.761Z,4.67
2018-06-20T00:39:40.359Z,4.67
2018-06-20T00:42:08.046Z,5.17
2018-06-20T00:44:35.808Z,5.47
2018-06-20T00:47:03.422Z,5.67
2018-06-20T00:49:31.025Z,3.80
2018-06-20T00:51:58.692Z,5.03
2018-06-20T00:54:26.849Z,4.43
2018-06-20T00:56:54.480Z,4.50
2018-06-20T00:59:22.188Z,5.10
2018-06-20T01:01:50.028Z,4.63
2018-06-20T01:04:17.823Z,4.10
2018-06-20T01:06:45.438Z,6.10
2018-06-20T01:09:13.561Z,5.23
2018-06-20T01:11:41.227Z,5.03
2018-06-20T01:14:08.976Z,5.23
2018-06-20T01:16:36.645Z,5.27
2018-06-20T01:19:04.299Z,4.80
2018-06-20T01:21:31.935Z,9.03
2018-06-20T01:23:59.479Z,5.17
2018-06-20T01:26:27.155Z,4.93
2018-06-20T01:28:54.843Z,5.13
2018-06-20T01:31:22.438Z,5.90
2018-06-20T01:33:50.042Z,5.70
2018-06-20T01:36:17.678Z,4.90
2018-06-20T01:38:45.253Z,8.50
2018-06-20T01:41:12.831Z,10.20
2018-06-20T01:43:40.557Z,5.63
2018-06-20T01:46:08.137Z,8.50
2018-06-20T01:48:35.801Z,4.60
2018-06-20T01:51:03.490Z,4.90
2018-06-20T01:53:31.123Z,4.90
2018-06-20T01:55:58.741Z,6.73
2018-06-20T01:58:26.326Z,7.67
2018-06-20T02:00:53.898Z,5.20
2018-06-20T02:03:21.548Z,5.53
2018-06-20T02:05:49.184Z,5.37
2018-06-20T02:08:16.719Z,5.90
2018-06-20T02:10:44.373Z,5.20
2018-06-20T02:13:11.927Z,4.87
2018-06-20T02:15:39.569Z,6.10
2018-06-20T02:18:07.197Z,6.23
2018-06-20T02:20:34.796Z,6.23
2018-06-20T02:23:02.436Z,4.93
2018-06-20T02:25:30.033Z,5.83
2018-06-20T02:27:57.657Z,6.07
2018-06-20T02:30:25.237Z,5.03
2018-06-20T02:32:52.817Z,4.30
2018-06-20T02:35:20.397Z,4.90
2018-06-20T02:37:47.943Z,5.03
2018-06-20T02:40:15.695Z,5.80
2018-06-20T02:42:43.274Z,10.23
2018-06-20T02:45:10.932Z,5.50
2018-06-20T02:47:41.339Z,5.50
2018-06-20T02:50:09.449Z,4.77
2018-06-20T02:52:37.465Z,6.67
2018-06-20T02:55:05.091Z,6.17
2018-06-20T02:57:32.923Z,5.37
2018-06-20T03:00:00.977Z,6.30
2018-06-20T03:02:28.608Z,7.37
2018-06-20T03:04:56.204Z,6.30
2018-06-20T03:07:23.860Z,5.73
2018-06-20T03:09:51.523Z,6.87
2018-06-20T03:12:19.158Z,7.90
2018-06-20T03:14:46.745Z,5.50
2018-06-20T03:17:14.437Z,7.37
2018-06-20T03:19:42.023Z,6.63
2018-06-20T03:22:09.934Z,5.00
2018-06-20T03:24:37.569Z,7.50
2018-06-20T03:27:05.183Z,6.77
2018-06-20T03:29:32.876Z,6.07
2018-06-20T03:32:00.490Z,6.13
2018-06-20T03:34:28.052Z,5.73
2018-06-20T03:36:55.713Z,7.37
2018-06-20T03:39:23.284Z,6.60
2018-06-20T03:41:50.901Z,4.93
2018-06-20T03:44:18.683Z,6.90
2018-06-20T03:46:46.299Z,7.13
2018-06-20T03:49:13.870Z,5.77
2018-06-20T03:51:41.565Z,6.27
2018-06-20T03:54:09.161Z,6.20
2018-06-20T03:56:36.868Z,7.33
2018-06-20T03:59:04.474Z,5.57
2018-06-20T04:01:32.113Z,7.63
2018-06-20T04:03:59.814Z,7.73
2018-06-20T04:06:27.409Z,6.87
2018-06-20T04:08:54.964Z,8.20
2018-06-20T04:11:22.755Z,8.60
2018-06-20T04:13:50.360Z,6.40
2018-06-20T04:16:18.112Z,6.00
2018-06-20T04:18:45.782Z,5.87
2018-06-20T04:21:14.553Z,5.83
2018-06-20T04:23:42.113Z,7.17
2018-06-20T04:26:10.730Z,6.03
2018-06-20T04:28:38.588Z,5.90
2018-06-20T04:31:07.166Z,5.80
2018-06-20T04:33:35.705Z,5.60
2018-06-20T04:36:03.305Z,4.90
2018-06-20T04:38:31.025Z,4.63
2018-06-20T04:40:59.207Z,5.77
2018-06-20T04:43:26.913Z,5.93
2018-06-20T04:45:54.753Z,5.20
2018-06-20T04:48:22.541Z,5.50
2018-06-20T04:50:50.150Z,7.37
2018-06-20T04:53:18.061Z,6.53
2018-06-20T04:55:45.866Z,5.03
2018-06-20T04:58:14.614Z,5.83
2018-06-20T05:00:42.557Z,6.73
2018-06-20T05:03:10.313Z,5.00
2018-06-20T05:05:37.916Z,5.23
2018-06-20T05:08:05.704Z,5.20
2018-06-20T05:10:33.325Z,4.77
2018-06-20T05:13:00.925Z,6.47
2018-06-20T05:15:28.495Z,6.50
2018-06-20T05:17:56.145Z,8.10
2018-06-20T05:20:23.956Z,5.90
2018-06-20T05:22:51.632Z,4.80
2018-06-20T05:25:19.250Z,4.53
2018-06-20T05:27:46.860Z,8.10
2018-06-20T05:30:14.425Z,5.20
2018-06-20T05:32:42.021Z,4.40
2018-06-20T05:35:09.697Z,6.03
2018-06-20T05:37:37.332Z,4.93
2018-06-20T05:40:05.451Z,5.27
2018-06-20T05:42:33.166Z,4.30
2018-06-20T05:45:00.910Z,4.90
2018-06-20T05:47:28.609Z,5.17
2018-06-20T05:49:56.254Z,5.50
2018-06-20T05:52:23.885Z,6.97
2018-06-20T05:54:51.476Z,5.00
2018-06-20T05:57:19.060Z,5.20
2018-06-20T05:59:46.678Z,4.63
2018-06-20T06:02:14.427Z,5.33
2018-06-20T06:04:42.133Z,4.93
2018-06-20T06:07:09.930Z,4.50
2018-06-20T06:09:37.676Z,3.90
2018-06-20T06:12:06.117Z,6.70
2018-06-20T06:14:33.685Z,8.90
2018-06-20T06:17:01.344Z,5.93
2018-06-20T06:19:28.913Z,5.30
2018-06-20T06:21:56.549Z,5.67
2018-06-20T06:24:24.465Z,4.67
2018-06-20T06:26:52.097Z,7.80
2018-06-20T06:29:19.717Z,5.70
2018-06-20T06:31:47.316Z,5.27
2018-06-20T06:34:14.889Z,5.70
2018-06-20T06:36:42.501Z,5.93
2018-06-20T06:39:11.381Z,6.07
2018-06-20T06:41:39.152Z,5.60
2018-06-20T06:44:06.722Z,5.40
2018-06-20T06:46:34.439Z,5.53
2018-06-20T06:49:02.357Z,6.33
2018-06-20T06:51:30.087Z,9.17
2018-06-20T06:53:57.685Z,7.17
2018-06-20T06:56:25.426Z,7.57
2018-06-20T06:58:53.197Z,7.20
2018-06-20T07:01:20.825Z,8.57
2018-06-20T07:03:48.434Z,8.00
2018-06-20T07:06:16.233Z,9.20
2018-06-20T07:08:43.837Z,7.60
2018-06-20T07:11:11.436Z,7.80
2018-06-20T07:13:39.049Z,7.83
2018-06-20T07:16:06.625Z,8.10
2018-06-20T07:18:34.285Z,7.77
2018-06-20T07:21:01.895Z,8.43
2018-06-20T07:23:29.510Z,9.37
2018-06-20T07:25:57.048Z,9.77
2018-06-20T07:28:24.692Z,8.93
2018-06-20T07:30:52.303Z,9.07
2018-06-20T07:33:19.899Z,9.33
2018-06-20T07:35:47.631Z,8.90
2018-06-20T07:38:15.207Z,8.53
2018-06-20T07:40:42.750Z,9.17
2018-06-20T07:43:10.343Z,8.70
2018-06-20T07:45:37.954Z,8.50
2018-06-20T07:48:05.557Z,7.40
2018-06-20T07:50:33.152Z,8.10
2018-06-20T07:53:00.822Z,8.47
2018-06-20T07:55:28.400Z,8.70
2018-06-20T07:57:55.969Z,8.90
2018-06-20T08:00:29.497Z,8.60
2018-06-20T08:03:11.639Z,8.97
2018-06-20T08:05:44.822Z,7.90
2018-06-20T08:08:18.237Z,8.20
2018-06-20T08:10:51.619Z,6.63
2018-06-20T08:13:24.819Z,5.70
2018-06-20T08:15:58.110Z,5.93
2018-06-20T08:18:31.346Z,6.70
2018-06-20T08:20:58.913Z,6.30
2018-06-20T08:23:26.827Z,6.20
2018-06-20T08:25:54.382Z,6.40
2018-06-20T08:28:22.338Z,5.10
2018-06-20T08:30:49.941Z,4.50
2018-06-20T08:33:17.548Z,4.80
2018-06-20T08:35:45.253Z,4.30
2018-06-20T08:38:12.840Z,3.90
2018-06-20T08:40:40.424Z,3.30
2018-06-20T08:43:08.185Z,4.23
2018-06-20T08:45:35.845Z,4.20
2018-06-20T08:48:03.458Z,4.10
2018-06-20T08:50:31.062Z,4.50
2018-06-20T08:52:58.610Z,5.23
2018-06-20T08:55:26.430Z,5.73
2018-06-20T08:57:53.976Z,5.77
2018-06-20T09:00:27.398Z,7.50
2018-06-20T09:02:54.974Z,7.53
2018-06-20T09:05:28.369Z,6.40
2018-06-20T09:08:01.553Z,6.80
2018-06-20T09:10:34.832Z,7.80
2018-06-20T09:13:08.235Z,7.70
2018-06-20T09:15:41.863Z,7.63
2018-06-20T09:18:15.052Z,9.33
2018-06-20T09:20:42.666Z,8.67
2018-06-20T09:23:11.157Z,7.13
2018-06-20T09:25:38.752Z,8.47
2018-06-20T09:28:06.327Z,8.60
2018-06-20T09:30:33.994Z,7.90
2018-06-20T09:33:01.544Z,9.20
2018-06-20T09:35:29.157Z,7.40
2018-06-20T09:37:56.737Z,8.23
2018-06-20T09:40:24.382Z,8.30
2018-06-20T09:42:51.970Z,8.33
2018-06-20T09:45:19.566Z,8.87
2018-06-20T09:47:47.134Z,8.10
2018-06-20T09:50:20.593Z,8.30
2018-06-20T09:52:48.271Z,8.03
2018-06-20T09:55:15.877Z,7.97
2018-06-20T09:57:43.567Z,10.47
2018-06-20T10:00:21.454Z,10.37
2018-06-20T10:02:54.966Z,9.70
2018-06-20T10:05:28.169Z,10.67
2018-06-20T10:08:01.559Z,10.67
2018-06-20T10:10:34.878Z,10.37
2018-06-20T10:13:08.218Z,9.37
2018-06-20T10:15:36.368Z,9.90
2018-06-20T10:18:04.207Z,9.77
2018-06-20T10:20:31.910Z,9.70
2018-06-20T10:23:00.524Z,10.50
2018-06-20T10:25:28.864Z,9.43
2018-06-20T10:27:57.013Z,10.07
2018-06-20T10:30:24.809Z,8.83
2018-06-20T10:32:52.759Z,9.97
2018-06-20T10:35:20.355Z,9.67
2018-06-20T10:37:48.061Z,11.23
2018-06-20T10:40:15.924Z,10.43
2018-06-20T10:42:43.508Z,9.40
2018-06-20T10:45:16.744Z,9.83
2018-06-20T10:47:45.875Z,9.90
2018-06-20T10:50:13.998Z,10.17
2018-06-20T10:52:41.881Z,10.10
2018-06-20T10:55:12.936Z,9.53
2018-06-20T10:57:46.306Z,10.80
2018-06-20T11:00:19.755Z,10.67
2018-06-20T11:02:53.213Z,10.53
2018-06-20T11:05:26.469Z,10.60
2018-06-20T11:07:59.904Z,12.47
2018-06-20T11:10:33.132Z,11.10
2018-06-20T11:13:05.770Z,10.57
2018-06-20T11:15:33.829Z,11.17
2018-06-20T11:18:01.409Z,10.43
2018-06-20T11:20:34.701Z,10.23
2018-06-20T11:23:02.297Z,9.70
2018-06-20T11:25:29.917Z,9.93
2018-06-20T11:27:57.767Z,10.00
2018-06-20T11:30:25.475Z,9.93
2018-06-20T11:32:53.049Z,10.87
2018-06-20T11:35:21.054Z,11.33
2018-06-20T11:37:48.985Z,10.50
2018-06-20T11:40:16.780Z,10.07
2018-06-20T11:42:44.341Z,11.03
2018-06-20T11:45:12.304Z,13.07
2018-06-20T11:47:41.467Z,9.40
2018-06-20T11:50:09.969Z,11.23
2018-06-20T11:52:43.355Z,11.90
2018-06-20T11:55:16.654Z,13.70
2018-06-20T11:57:44.295Z,12.47
2018-06-20T12:00:17.778Z,9.90
2018-06-20T12:02:50.917Z,10.90
2018-06-20T12:05:24.251Z,12.20
2018-06-20T12:07:57.384Z,10.97
2018-06-20T12:10:30.945Z,11.57
2018-06-20T12:13:04.164Z,10.13
2018-06-20T12:15:37.415Z,10.90
2018-06-20T12:18:10.902Z,12.77
2018-06-20T12:20:44.392Z,11.00
2018-06-20T12:23:17.733Z,10.27
2018-06-20T12:25:51.030Z,10.80
2018-06-20T12:28:24.300Z,10.40
2018-06-20T12:30:57.583Z,11.47
2018-06-20T12:33:30.822Z,11.97
2018-06-20T12:36:04.257Z,11.90
2018-06-20T12:38:37.622Z,11.90
2018-06-20T12:41:10.946Z,13.40
2018-06-20T12:43:44.086Z,12.87
2018-06-20T12:46:16.403Z,12.30
2018-06-20T12:48:44.006Z,12.90
2018-06-20T12:51:11.577Z,12.90
2018-06-20T12:53:39.174Z,11.93
2018-06-20T12:56:06.733Z,11.57
2018-06-20T12:58:34.375Z,14.13
2018-06-20T13:01:02.023Z,12.53
2018-06-20T13:03:29.689Z,13.33
2018-06-20T13:05:57.264Z,14.37
2018-06-20T13:08:24.885Z,14.37
2018-06-20T13:10:52.665Z,14.47
2018-06-20T13:13:20.332Z,14.00
2018-06-20T13:15:47.990Z,14.20
2018-06-20T13:18:15.630Z,14.20
2018-06-20T13:20:43.140Z,13.03
2018-06-20T13:23:10.801Z,14.80
2018-06-20T13:25:38.420Z,13.37
2018-06-20T13:28:06.008Z,13.33
2018-06-20T13:30:33.566Z,16.10
2018-06-20T13:33:07.009Z,15.80
2018-06-20T13:35:40.299Z,13.83
2018-06-20T13:38:13.605Z,16.10
2018-06-20T13:40:46.915Z,13.97
2018-06-20T13:43:20.306Z,14.87
2018-06-20T13:45:53.633Z,13.37
2018-06-20T13:48:28.641Z,12.80
2018-06-20T13:50:56.210Z,13.00
2018-06-20T13:53:23.811Z,15.10
2018-06-20T13:55:51.397Z,14.37
2018-06-20T13:58:19.016Z,13.57
2018-06-20T14:00:46.617Z,12.57
2018-06-20T14:03:14.300Z,13.40
2018-06-20T14:05:41.963Z,15.03
2018-06-20T14:08:09.591Z,12.70
2018-06-20T14:10:37.285Z,14.37
2018-06-20T14:13:04.912Z,15.23
2018-06-20T14:15:32.478Z,14.23
2018-06-20T14:18:00.117Z,16.50
2018-06-20T14:20:33.278Z,15.17
2018-06-20T14:23:00.841Z,14.93
2018-06-20T14:25:30.027Z,15.13
2018-06-20T14:27:57.597Z,15.03
2018-06-20T14:30:30.909Z,15.30
2018-06-20T14:33:04.359Z,16.23
2018-06-20T14:35:37.646Z,14.17
2018-06-20T14:38:10.990Z,14.70
2018-06-20T14:40:44.163Z,14.80
2018-06-20T14:43:17.528Z,14.50
2018-06-20T14:45:50.722Z,14.90
2018-06-20T14:48:18.348Z,14.60
2018-06-20T14:50:45.954Z,14.13
2018-06-20T14:53:13.584Z,14.60
2018-06-20T14:55:41.247Z,14.87
2018-06-20T14:58:08.930Z,14.77
2018-06-20T15:00:36.507Z,14.97
2018-06-20T15:03:04.276Z,14.10
2018-06-20T15:05:31.895Z,15.23
2018-06-20T15:07:59.471Z,13.57
2018-06-20T15:10:27.061Z,14.80
2018-06-20T15:12:54.799Z,15.33
2018-06-20T15:15:22.426Z,14.33
2018-06-20T15:17:49.998Z,15.77
2018-06-20T15:20:17.648Z,15.60
2018-06-20T15:22:46.022Z,15.20
2018-06-20T15:25:14.145Z,15.17
2018-06-20T15:27:47.364Z,16.30
2018-06-20T15:30:20.748Z,16.70
2018-06-20T15:32:54.010Z,15.27
2018-06-20T15:35:27.558Z,16.00
2018-06-20T15:38:00.773Z,15.17
2018-06-20T15:40:28.459Z,13.87
2018-06-20T15:42:56.121Z,13.47
2018-06-20T15:45:23.789Z,13.80
2018-06-20T15:47:51.385Z,13.67
2018-06-20T15:50:19.021Z,14.13
2018-06-20T15:52:46.596Z,15.63
2018-06-20T15:55:14.184Z,14.50
2018-06-20T15:57:41.764Z,16.30
2018-06-20T16:00:10.035Z,15.40
2018-06-20T16:02:37.931Z,15.33
2018-06-20T16:05:05.578Z,15.90
2018-06-20T16:07:33.245Z,15.03
2018-06-20T16:10:01.345Z,15.43
2018-06-20T16:12:28.993Z,15.93
2018-06-20T16:14:57.206Z,15.63
2018-06-20T16:17:25.015Z,17.23
2018-06-20T16:19:58.476Z,15.80
2018-06-20T16:22:31.711Z,16.57
2018-06-20T16:25:05.057Z,16.13
2018-06-20T16:27:38.245Z,15.43
2018-06-20T16:30:11.426Z,16.23
2018-06-20T16:32:39.021Z,15.70
2018-06-20T16:35:06.622Z,15.00
2018-06-20T16:37:34.233Z,15.13
2018-06-20T16:40:01.931Z,15.30
2018-06-20T16:42:29.509Z,15.20
2018-06-20T16:44:57.245Z,15.73
2018-06-20T16:47:25.079Z,14.87
2018-06-20T16:49:52.681Z,15.37
2018-06-20T16:52:20.331Z,14.67
2018-06-20T16:54:47.906Z,14.80
2018-06-20T16:57:15.480Z,14.40
2018-06-20T16:59:43.090Z,13.90
2018-06-20T17:02:16.336Z,14.03
2018-06-20T17:04:43.973Z,14.83
2018-06-20T17:07:16.376Z,14.17
2018-06-20T17:09:44.026Z,13.00
2018-06-20T17:13:20.213Z,14.37
2018-06-20T17:15:53.465Z,13.30
2018-06-20T17:18:26.626Z,14.10
2018-06-20T17:20:59.882Z,14.77
2018-06-20T17:23:33.131Z,13.70
2018-06-20T17:26:00.793Z,13.50
2018-06-20T17:28:28.378Z,14.10
2018-06-20T17:30:55.993Z,14.37
2018-06-20T17:33:23.738Z,14.30
2018-06-20T17:35:51.302Z,14.23
2018-06-20T17:38:18.907Z,15.70
2018-06-20T17:40:46.482Z,15.63
2018-06-20T17:43:14.058Z,14.67
2018-06-20T17:45:41.625Z,14.67
2018-06-20T17:48:09.437Z,14.30
2018-06-20T17:50:36.997Z,16.70
2018-06-20T17:53:04.629Z,15.27
2018-06-20T17:55:32.174Z,16.30
2018-06-20T17:57:59.753Z,17.17
2018-06-20T18:00:27.341Z,14.87
2018-06-20T18:02:54.943Z,15.70
2018-06-20T18:05:28.186Z,15.53
2018-06-20T18:08:01.432Z,15.63
2018-06-20T18:10:34.817Z,15.23
2018-06-20T18:13:02.889Z,15.40
2018-06-20T18:15:36.322Z,16.60
2018-06-20T18:18:04.240Z,15.17
2018-06-20T18:20:31.796Z,17.90
2018-06-20T18:22:59.428Z,16.50
2018-06-20T18:25:27.013Z,16.77
2018-06-20T18:27:54.694Z,17.73
2018-06-20T18:30:22.298Z,16.30
2018-06-20T18:32:49.909Z,16.90
2018-06-20T18:35:17.515Z,17.23
2018-06-20T18:37:45.178Z,16.27
2018-06-20T18:40:12.717Z,17.67
2018-06-20T18:42:40.410Z,17.13
2018-06-20T18:45:07.956Z,16.40
2018-06-20T18:47:41.201Z,16.70
2018-06-20T18:50:09.361Z,15.50
2018-06-20T18:52:37.141Z,15.87
2018-06-20T18:55:04.758Z,16.17
2018-06-20T18:57:38.193Z,15.73
2018-06-20T19:00:12.365Z,15.70
2018-06-20T19:02:45.821Z,15.07
2018-06-20T19:05:18.976Z,15.30
2018-06-20T19:07:52.443Z,15.50
2018-06-20T19:10:20.084Z,15.87
2018-06-20T19:12:47.674Z,15.33
2018-06-20T19:15:15.233Z,14.80
2018-06-20T19:17:42.823Z,14.67
2018-06-20T19:20:10.550Z,14.83
2018-06-20T19:22:38.130Z,15.13
2018-06-20T19:25:05.838Z,19.43
2018-06-20T19:27:33.412Z,16.73
2018-06-20T19:30:01.003Z,15.67
2018-06-20T19:32:28.685Z,17.50
2018-06-20T19:34:56.305Z,21.93
2018-06-20T19:37:23.944Z,17.03
2018-06-20T19:39:53.613Z,17.30
2018-06-20T19:42:23.562Z,22.30
2018-06-20T19:44:51.188Z,16.40
2018-06-20T19:47:18.694Z,16.57
2018-06-20T19:49:46.274Z,17.67
2018-06-20T19:52:13.889Z,17.90
2018-06-20T19:54:41.815Z,17.60
2018-06-20T19:57:09.380Z,17.70
2018-06-20T19:59:37.418Z,16.90
2018-06-20T20:02:05.050Z,16.13
2018-06-20T20:04:32.825Z,17.87
2018-06-20T20:07:00.481Z,18.80
2018-06-20T20:09:28.169Z,17.50
2018-06-20T20:11:55.847Z,17.13
2018-06-20T20:14:23.544Z,17.40
2018-06-20T20:16:51.223Z,18.23
2018-06-20T20:19:18.806Z,17.37
2018-06-20T20:21:46.366Z,17.60
2018-06-20T20:24:14.053Z,17.97
2018-06-20T20:26:41.678Z,17.50
2018-06-20T20:29:09.268Z,17.50
2018-06-20T20:31:36.822Z,18.30
2018-06-20T20:34:04.543Z,18.53
2018-06-20T20:36:32.145Z,19.20
2018-06-20T20:38:59.743Z,18.40
2018-06-20T20:41:27.396Z,18.93
2018-06-20T20:43:55.185Z,18.13
2018-06-20T20:46:22.804Z,19.20
2018-06-20T20:48:50.463Z,18.43
2018-06-20T20:51:18.073Z,18.80
2018-06-20T20:53:45.642Z,18.63
2018-06-20T20:56:13.367Z,17.10
2018-06-20T20:58:40.965Z,17.90
2018-06-20T21:01:08.574Z,19.47
2018-06-20T21:03:36.230Z,18.60
2018-06-20T21:06:03.939Z,17.40
2018-06-20T21:08:31.651Z,19.03
2018-06-20T21:10:59.217Z,18.37
2018-06-20T21:13:26.798Z,17.47
2018-06-20T21:15:54.390Z,18.57
2018-06-20T21:18:22.009Z,18.47
2018-06-20T21:20:49.601Z,17.73
2018-06-20T21:23:17.393Z,18.17
2018-06-20T21:25:45.058Z,18.60
2018-06-20T21:28:12.613Z,17.13
2018-06-20T21:30:40.333Z,19.00
2018-06-20T21:33:07.960Z,16.57
2018-06-20T21:35:35.592Z,17.33
2018-06-20T21:38:03.233Z,17.03
2018-06-20T21:40:30.781Z,17.40
2018-06-20T21:42:58.350Z,17.73
2018-06-20T21:45:25.990Z,17.97
2018-06-20T21:47:53.604Z,17.80
2018-06-20T21:50:21.283Z,17.87
2018-06-20T21:52:48.854Z,18.00
2018-06-20T21:55:16.592Z,19.33
2018-06-20T21:57:44.178Z,20.37
2018-06-20T22:00:12.700Z,23.03
2018-06-20T22:02:40.644Z,22.87
2018-06-20T22:05:08.289Z,21.87
2018-06-20T22:07:36.365Z,21.40
2018-06-20T22:10:04.696Z,20.97
2018-06-20T22:12:32.395Z,20.70
2018-06-20T22:15:00.301Z,24.67
2018-06-20T22:17:28.017Z,20.17
2018-06-20T22:19:55.683Z,20.57
2018-06-20T22:22:23.340Z,20.40
2018-06-20T22:24:50.993Z,19.50
2018-06-20T22:27:18.770Z,19.93
2018-06-20T22:29:46.333Z,19.40
2018-06-20T22:32:13.980Z,18.63
2018-06-20T22:34:41.664Z,18.57
2018-06-20T22:37:09.221Z,17.23
2018-06-20T22:39:36.847Z,17.43
2018-06-20T22:42:04.535Z,17.90
2018-06-20T22:44:32.187Z,17.93
2018-06-20T22:46:59.790Z,18.43
2018-06-20T22:49:27.360Z,17.80
2018-06-20T22:51:54.975Z,19.30
2018-06-20T22:54:22.851Z,19.90
2018-06-20T22:56:50.414Z,19.30
2018-06-20T22:59:17.990Z,21.33
2018-06-20T23:01:45.621Z,20.70
2018-06-20T23:04:13.272Z,21.63
2018-06-20T23:06:40.901Z,20.00
2018-06-20T23:09:09.582Z,22.63
2018-06-20T23:11:42.865Z,23.37
2018-06-20T23:14:10.465Z,25.70
2018-06-20T23:16:38.069Z,22.10
2018-06-20T23:19:05.921Z,23.97
2018-06-20T23:21:33.596Z,26.10
2018-06-20T23:24:01.431Z,24.43
2018-06-20T23:26:29.068Z,27.63
2018-06-20T23:28:56.952Z,27.33
2018-06-20T23:31:24.601Z,28.63
2018-06-20T23:33:52.402Z,28.63
2018-06-20T23:36:20.138Z,27.17
2018-06-20T23:38:47.804Z,26.90
2018-06-20T23:41:15.438Z,25.07
2018-06-20T23:43:43.654Z,20.50
2018-06-20T23:46:11.655Z,26.27
2018-06-20T23:48:39.278Z,25.60
2018-06-20T23:51:07.274Z,25.93
2018-06-20T23:53:34.832Z,26.27
2018-06-20T23:56:02.392Z,27.73
2018-06-20T23:58:30.015Z,29.30
